TimeEST,TemperatureF,Dew PointF,Humidity,Sea Level PressureIn,VisibilityMPH,Wind Direction,Wind SpeedMPH,Gust SpeedMPH,PrecipitationIn,Events,Conditions,WindDirDegrees,DateUTC
12:50 AM,8.6,8.6,100,-9999,0.1,NNW,11.5,-,N/A,Fog-Snow,Light Snow,340,2014-01-19 05:50:00
1:49 AM,8.6,8.6,100,-9999,0.1,WNW,8.1,-,N/A,Fog-Snow,Light Snow,300,2014-01-19 06:49:00
2:52 AM,10.4,5.0,79,-9999,1.0,WSW,4.6,-,N/A,Snow,Light Snow,240,2014-01-19 07:52:00
3:53 AM,8.6,5.0,85,-9999,15.0,West,9.2,-,N/A,Snow,Light Snow,270,2014-01-19 08:53:00
4:53 AM,8.6,3.2,79,-9999,15.0,WSW,11.5,-,N/A,Snow,Light Snow,240,2014-01-19 09:53:00
5:55 AM,8.6,8.6,100,-9999,0.1,South,11.5,-,N/A,Fog-Snow,Light Snow,190,2014-01-19 10:55:00
6:47 AM,8.6,8.6,100,-9999,0.0,SW,11.5,-,N/A,Fog-Snow,Light Snow,220,2014-01-19 11:47:00
7:52 AM,8.6,8.6,100,-9999,0.0,SSW,13.8,-,N/A,Fog-Snow,Light Snow,200,2014-01-19 12:52:00
8:59 AM,8.6,8.6,100,-9999,0.0,SSW,20.7,-,N/A,Fog-Snow,Light Snow,200,2014-01-19 13:59:00
9:55 AM,8.6,8.6,100,-9999,0.0,SSW,20.7,-,N/A,Fog-Snow,Light Snow,200,2014-01-19 14:55:00
10:55 AM,10.4,10.4,100,-9999,0.0,SW,19.6,23.0,N/A,Fog-Snow,Light Snow,220,2014-01-19 15:55:00
11:54 AM,8.6,8.6,100,-9999,0.1,WSW,27.6,33.4,N/A,Fog-Snow,Light Snow,240,2014-01-19 16:54:00
12:53 PM,6.8,6.8,100,-9999,0.0,West,29.9,-,N/A,Fog-Snow,Light Snow,270,2014-01-19 17:53:00
1:53 PM,5.0,5.0,100,-9999,0.0,West,46.0,-,N/A,Fog-Snow,Light Snow,270,2014-01-19 18:53:00
2:56 PM,3.2,3.2,100,-9999,0.0,West,49.5,57.5,N/A,Fog-Snow,Light Freezing Fog,270,2014-01-19 19:56:00
3:54 PM,3.2,3.2,100,-9999,0.0,West,58.7,65.6,N/A,Fog-Snow,Light Snow,270,2014-01-19 20:54:00
4:56 PM,1.4,1.4,100,-9999,0.0,West,56.4,65.6,N/A,Fog-Snow,Light Snow,260,2014-01-19 21:56:00
5:54 PM,1.4,1.4,100,-9999,0.0,West,64.4,71.3,N/A,Fog-Snow,Light Snow,260,2014-01-19 22:54:00
6:47 PM,1.4,1.4,100,-9999,0.0,West,65.6,77.1,N/A,Fog-Snow,Light Snow,270,2014-01-19 23:47:00
7:57 PM,1.4,1.4,100,-9999,0.0,West,82.9,89.8,N/A,Fog-Snow,Light Snow,270,2014-01-20 00:57:00
8:52 PM,1.4,1.4,100,-9999,0.0,West,72.5,84.0,N/A,Fog-Snow,Light Snow,270,2014-01-20 01:52:00
9:52 PM,3.2,3.2,100,-9999,0.0,West,78.3,87.5,N/A,Fog-Snow,Light Snow,270,2014-01-20 02:52:00
10:58 PM,3.2,3.2,100,-9999,0.0,West,77.1,87.5,N/A,Fog-Snow,Light Snow,280,2014-01-20 03:58:00
11:49 PM,3.2,3.2,100,-9999,0.0,West,69.0,79.4,N/A,Fog-Snow,Light Snow,280,2014-01-20 04:49:00